Air Resources Laboratory banner image
Air Resources Laboratory web site National Oceanic and Atmospheric Administration (NOAA)

oh metar


KAKR 181554Z AUTO 01004KT 10SM FEW016 BKN041 BKN050 26/21 A2996 RMK AO2 SLP137
 T02610206=
KAOH 181553Z AUTO 02007KT 10SM FEW018 SCT080 25/20 A3000 RMK AO2 SLP151
 T02500200=
KBJJ 181556Z AUTO 35007KT 9SM SCT017 SCT024 BKN036 24/21 A2997 RMK AO2 SLP141
 T02440211=
KBKL 181553Z 03016KT 10SM CLR 25/19 A2994 RMK AO2 SLP135 T02500194 $=
KCAK 181551Z 31007KT 10SM BKN017 OVC090 26/21 A2996 RMK AO2 SLP138 T02560206 $=
KCGF 181545Z 03009KT 10SM SCT012 25/21 A2996=
KCLE 181551Z 02010KT 10SM SCT019 BKN026 BKN036 26/21 A2998 RMK AO2 SLP146
 T02610206 $=
KCMH 181551Z 36009KT 10SM FEW017 BKN034 26/20 A2997 RMK AO2 SLP141 T02560200 $=
KDAY 181556Z 02010KT 10SM SCT017 SCT023 BKN150 26/20 A3000 RMK AO2 SLP151
 T02560200=
KDFI 181553Z AUTO 01004KT 10SM CLR 26/21 A3000 RMK AO2 SLP153 T02610206=
KFDY 181553Z AUTO 01004KT 10SM FEW022 27/21 A2998 RMK AO2 SLP142 T02670206=
KFFO 181556Z 02004KT 10SM SCT028 24/20 A2998 RMK AO2A SLP150 T02440201=
KHAO 181553Z AUTO 01008KT 10SM FEW018 FEW120 27/22 A2998 RMK AO2 SLP148
 T02670217=
KHZY 181553Z AUTO VRB06KT 10SM FEW025 24/19 A2997 RMK AO2 SLP142 T02390194=
KILN 181554Z AUTO 01009KT 10SM SCT019 26/22 A2998 RMK AO2 SLP141 T02610217=
KLCK 181555Z AUTO 32004KT 10SM SCT021 BKN029 OVC033 25/20 A2997 RMK AO2
 T02450200=
KLHQ 181553Z AUTO 35006KT 10SM SCT024 BKN032 BKN040 25/21 A2997 RMK AO2 SLP141
 T02500206=
KLNN 181555Z AUTO 06011G16KT 10SM CLR 25/17 A2995 RMK AO1 T02450171=
KLPR 181553Z AUTO 01010KT 10SM SCT018 SCT029 BKN039 25/19 A2997 RMK AO2 SLP142
 T02500189 TSNO=
KLUK 181553Z 06005KT 10SM BKN022 BKN100 27/22 A2997 RMK AO2 SLP143 T02720217=
KMFD 181552Z 33006KT 6SM HZ SCT012 OVC019 24/21 A2998 RMK AO2 SLP144 T02440211=
KMGY 181553Z AUTO 03005KT 10SM BKN025 BKN031 27/20 A2998 RMK AO2 SLP143
 T02720200=
KMNN 181553Z AUTO 34007KT 5SM HZ FEW012 SCT031 BKN060 24/21 A2999 RMK AO2
 SLP148 T02440206=
KOSU 181553Z 35006KT 10SM SCT018 BKN024 24/20 A2998 RMK AO2 SLP144 T02440200=
KPHD 181553Z AUTO VRB03KT 10SM OVC018 24/20 A2997 RMK AO2 SLP141 T02390200=
KSGH 181556Z AUTO VRB03KT 10SM 25/21 A2999 RMK AO2 SLP151 T02500206 $=
KTDZ 181553Z AUTO 03006KT 10SM CLR 26/21 A2999 RMK AO2 SLP149 T02560211=
KTOL 181552Z 05004KT 10SM FEW021 27/20 A2998 RMK AO2 SLP148 T02720200 $=
KTZR 181545Z 32006KT 10SM BKN020 BKN024 OVC028 24/21 A2999=
KVTA 181554Z AUTO VRB03KT 10SM SCT020 BKN034 BKN041 25/20 A2996 RMK AO2 SLP139
 T02500200=
KYNG 181551Z 35006KT 10SM BKN015 24/19 A2996 RMK AO2 SLP136 T02440194 $=
KZZV 181553Z AUTO 32009KT 10SM SCT023 BKN038 26/20 A2996 RMK AO2 SLP139
 T02560200=